ビサウ の空港の天気 - METARとTAF

オスヴァルド・ヴィエイラ国際空港 ( GGOV / OXB ) - ギニアビサウ ビサウ
飛行場実況気象(Metar)
観測時間10/18 09:00 GMT (10/18 09:00 UTC)
風向・風速北西 2m/s
視程10km以上
天気現象
全天の4割程度の雲 雲底高度 430m
気温28℃
湿度89%
気圧1013hPa
METARGGOV 180900Z 32004KT 250V040 9999 SCT014 28/26 Q1013 NOSIG
過去の天気等 Google飛行場航空写真 Wunderground天気予報

過去48時間のMETAR

飛行場予報(TAF)
発表時間: 10/17 23:00 GMT (10/17 23:00 UTC)
予報対象時間: 18日0時 GMT ~ 19日0時 GMT
風向・風速南西 3m/s
視程10km以上
天気現象
全天の4割程度の雲 雲底高度 430m
少しの積乱雲 雲底高度 610m
18日6時 GMT ~ 18日8時 GMT に徐々に
天気現象運行に影響にある天気現象が終了
全天の8割程度の雲 雲底高度 430m
TAF GGOV 172300Z 1800/1824 22006KT 9999 TS SCT014 FEW020CB
BECMG 1806/1808 NSW BKN014